sensor_id;sensor_type;location;lat;lon;timestamp;temperature;humidity
11559;DHT22;5835;42.930;25.178;2023-03-22T00:01:27;10.10;99.90
11559;DHT22;5835;42.930;25.178;2023-03-22T00:03:57;10.10;99.90
11559;DHT22;5835;42.930;25.178;2023-03-22T00:06:26;10.10;99.90
11559;DHT22;5835;42.930;25.178;2023-03-22T00:08:53;10.10;99.90
11559;DHT22;5835;42.930;25.178;2023-03-22T00:11:21;10.20;99.90
11559;DHT22;5835;42.930;25.178;2023-03-22T00:13:51;10.30;99.90
11559;DHT22;5835;42.930;25.178;2023-03-22T00:16:20;10.30;99.90
11559;DHT22;5835;42.930;25.178;2023-03-22T00:18:48;10.20;99.90
11559;DHT22;5835;42.930;25.178;2023-03-22T00:21:17;10.20;99.90
11559;DHT22;5835;42.930;25.178;2023-03-22T00:23:45;10.10;99.90
11559;DHT22;5835;42.930;25.178;2023-03-22T00:26:14;10.10;99.90
11559;DHT22;5835;42.930;25.178;2023-03-22T00:28:43;10.20;99.90
11559;DHT22;5835;42.930;25.178;2023-03-22T00:31:11;10.40;99.90
11559;DHT22;5835;42.930;25.178;2023-03-22T00:33:39;10.40;99.90
11559;DHT22;5835;42.930;25.178;2023-03-22T00:36:10;10.40;99.90
11559;DHT22;5835;42.930;25.178;2023-03-22T00:38:41;10.30;99.90
11559;DHT22;5835;42.930;25.178;2023-03-22T00:41:10;10.30;99.90
11559;DHT22;5835;42.930;25.178;2023-03-22T00:43:39;10.40;99.90
11559;DHT22;5835;42.930;25.178;2023-03-22T00:46:07;10.60;99.90
11559;DHT22;5835;42.930;25.178;2023-03-22T00:48:35;10.60;99.90
11559;DHT22;5835;42.930;25.178;2023-03-22T00:51:03;10.60;99.90
11559;DHT22;5835;42.930;25.178;2023-03-22T00:53:31;10.50;99.90
11559;DHT22;5835;42.930;25.178;2023-03-22T00:56:01;10.60;99.90
11559;DHT22;5835;42.930;25.178;2023-03-22T00:58:29;10.30;99.90
11559;DHT22;5835;42.930;25.178;2023-03-22T01:00:57;10.20;99.90
11559;DHT22;5835;42.930;25.178;2023-03-22T01:03:25;10.10;99.90
11559;DHT22;5835;42.930;25.178;2023-03-22T01:05:53;10.20;99.90
11559;DHT22;5835;42.930;25.178;2023-03-22T01:08:22;10.50;99.90
11559;DHT22;5835;42.930;25.178;2023-03-22T01:10:50;10.70;99.90
11559;DHT22;5835;42.930;25.178;2023-03-22T01:13:22;10.90;99.90
11559;DHT22;5835;42.930;25.178;2023-03-22T01:15:49;11.00;99.90
11559;DHT22;5835;42.930;25.178;2023-03-22T01:18:29;10.90;99.90
11559;DHT22;5835;42.930;25.178;2023-03-22T01:20:58;10.90;99.90
11559;DHT22;5835;42.930;25.178;2023-03-22T01:23:26;10.80;99.90
11559;DHT22;5835;42.930;25.178;2023-03-22T01:25:53;10.80;99.90
11559;DHT22;5835;42.930;25.178;2023-03-22T01:28:22;10.80;99.90
11559;DHT22;5835;42.930;25.178;2023-03-22T01:30:50;10.50;99.90
11559;DHT22;5835;42.930;25.178;2023-03-22T01:33:17;10.70;99.90
11559;DHT22;5835;42.930;25.178;2023-03-22T01:35:44;10.80;99.90
11559;DHT22;5835;42.930;25.178;2023-03-22T01:38:12;10.80;99.90
11559;DHT22;5835;42.930;25.178;2023-03-22T01:40:42;10.60;99.90
11559;DHT22;5835;42.930;25.178;2023-03-22T01:43:13;10.30;99.90
11559;DHT22;5835;42.930;25.178;2023-03-22T01:45:43;10.20;99.90
11559;DHT22;5835;42.930;25.178;2023-03-22T01:48:16;10.20;99.90
11559;DHT22;5835;42.930;25.178;2023-03-22T01:50:50;10.40;99.90
11559;DHT22;5835;42.930;25.178;2023-03-22T01:53:23;10.40;99.90
11559;DHT22;5835;42.930;25.178;2023-03-22T01:55:53;10.40;99.90
11559;DHT22;5835;42.930;25.178;2023-03-22T01:58:21;10.40;99.90
11559;DHT22;5835;42.930;25.178;2023-03-22T02:00:51;10.40;99.90
11559;DHT22;5835;42.930;25.178;2023-03-22T02:03:24;10.30;99.90
11559;DHT22;5835;42.930;25.178;2023-03-22T02:05:56;10.20;99.90
11559;DHT22;5835;42.930;25.178;2023-03-22T02:08:24;10.20;99.90
11559;DHT22;5835;42.930;25.178;2023-03-22T02:10:52;10.10;99.90
11559;DHT22;5835;42.930;25.178;2023-03-22T02:13:27;10.00;99.90
11559;DHT22;5835;42.930;25.178;2023-03-22T02:16:09;9.90;99.90
11559;DHT22;5835;42.930;25.178;2023-03-22T02:18:56;9.80;99.90
11559;DHT22;5835;42.930;25.178;2023-03-22T02:28:11;9.70;99.90
11559;DHT22;5835;42.930;25.178;2023-03-22T02:34:15;9.70;99.90
11559;DHT22;5835;42.930;25.178;2023-03-22T02:37:06;9.70;99.90
11559;DHT22;5835;42.930;25.178;2023-03-22T02:39:41;9.70;99.90
11559;DHT22;5835;42.930;25.178;2023-03-22T02:42:25;9.70;99.90
11559;DHT22;5835;42.930;25.178;2023-03-22T02:44:58;9.70;99.90
11559;DHT22;5835;42.930;25.178;2023-03-22T02:47:35;9.70;99.90
11559;DHT22;5835;42.930;25.178;2023-03-22T02:50:09;9.60;99.90
11559;DHT22;5835;42.930;25.178;2023-03-22T02:52:40;9.60;99.90
11559;DHT22;5835;42.930;25.178;2023-03-22T02:55:16;9.60;99.90
11559;DHT22;5835;42.930;25.178;2023-03-22T02:57:48;9.60;99.90
11559;DHT22;5835;42.930;25.178;2023-03-22T03:00:19;9.60;99.90
11559;DHT22;5835;42.930;25.178;2023-03-22T03:02:50;9.50;99.90
11559;DHT22;5835;42.930;25.178;2023-03-22T03:05:19;9.60;99.90
11559;DHT22;5835;42.930;25.178;2023-03-22T03:07:49;9.60;99.90
11559;DHT22;5835;42.930;25.178;2023-03-22T03:10:20;9.60;99.90
11559;DHT22;5835;42.930;25.178;2023-03-22T03:12:49;9.60;99.90
11559;DHT22;5835;42.930;25.178;2023-03-22T03:15:18;9.50;99.90
11559;DHT22;5835;42.930;25.178;2023-03-22T03:17:59;9.50;99.90
11559;DHT22;5835;42.930;25.178;2023-03-22T03:20:40;9.60;99.90
11559;DHT22;5835;42.930;25.178;2023-03-22T03:23:19;9.50;99.90
11559;DHT22;5835;42.930;25.178;2023-03-22T03:25:58;9.50;99.90
11559;DHT22;5835;42.930;25.178;2023-03-22T03:28:34;9.50;99.90
11559;DHT22;5835;42.930;25.178;2023-03-22T03:31:13;9.60;99.90
11559;DHT22;5835;42.930;25.178;2023-03-22T03:33:47;9.90;99.90
11559;DHT22;5835;42.930;25.178;2023-03-22T03:36:18;10.20;99.90
11559;DHT22;5835;42.930;25.178;2023-03-22T03:38:49;10.20;99.90
11559;DHT22;5835;42.930;25.178;2023-03-22T03:41:22;10.10;99.90
11559;DHT22;5835;42.930;25.178;2023-03-22T03:43:52;10.00;99.90
11559;DHT22;5835;42.930;25.178;2023-03-22T03:46:21;9.90;99.90
11559;DHT22;5835;42.930;25.178;2023-03-22T03:48:50;9.90;99.90
11559;DHT22;5835;42.930;25.178;2023-03-22T03:51:19;9.90;99.90
11559;DHT22;5835;42.930;25.178;2023-03-22T03:53:46;9.90;99.90
11559;DHT22;5835;42.930;25.178;2023-03-22T03:56:14;9.90;99.90
11559;DHT22;5835;42.930;25.178;2023-03-22T03:58:43;9.90;99.90
11559;DHT22;5835;42.930;25.178;2023-03-22T04:01:10;9.90;99.90
11559;DHT22;5835;42.930;25.178;2023-03-22T04:03:38;9.90;99.90
11559;DHT22;5835;42.930;25.178;2023-03-22T04:06:06;9.90;99.90
11559;DHT22;5835;42.930;25.178;2023-03-22T04:08:35;9.90;99.90
11559;DHT22;5835;42.930;25.178;2023-03-22T04:11:02;9.90;99.90
11559;DHT22;5835;42.930;25.178;2023-03-22T04:13:29;9.90;99.90
11559;DHT22;5835;42.930;25.178;2023-03-22T04:15:58;9.60;99.90
11559;DHT22;5835;42.930;25.178;2023-03-22T04:18:27;9.60;99.90
11559;DHT22;5835;42.930;25.178;2023-03-22T04:20:55;9.60;99.90
11559;DHT22;5835;42.930;25.178;2023-03-22T04:23:23;9.50;99.90
11559;DHT22;5835;42.930;25.178;2023-03-22T04:25:50;9.50;99.90
11559;DHT22;5835;42.930;25.178;2023-03-22T04:28:18;9.40;99.90
11559;DHT22;5835;42.930;25.178;2023-03-22T04:30:46;9.30;99.90
11559;DHT22;5835;42.930;25.178;2023-03-22T04:33:18;9.30;99.90
11559;DHT22;5835;42.930;25.178;2023-03-22T04:35:47;9.20;99.90
11559;DHT22;5835;42.930;25.178;2023-03-22T04:38:21;9.30;99.90
11559;DHT22;5835;42.930;25.178;2023-03-22T04:40:50;9.20;99.90
11559;DHT22;5835;42.930;25.178;2023-03-22T04:43:17;9.30;99.90
11559;DHT22;5835;42.930;25.178;2023-03-22T04:45:45;9.30;99.90
11559;DHT22;5835;42.930;25.178;2023-03-22T04:48:13;9.40;99.90
11559;DHT22;5835;42.930;25.178;2023-03-22T04:50:43;9.40;99.90
11559;DHT22;5835;42.930;25.178;2023-03-22T04:53:11;9.40;99.90
11559;DHT22;5835;42.930;25.178;2023-03-22T04:55:38;9.50;99.90
11559;DHT22;5835;42.930;25.178;2023-03-22T04:58:06;9.60;99.90
11559;DHT22;5835;42.930;25.178;2023-03-22T05:00:33;9.50;99.90
11559;DHT22;5835;42.930;25.178;2023-03-22T05:03:02;9.50;99.90
11559;DHT22;5835;42.930;25.178;2023-03-22T05:05:30;9.40;99.90
11559;DHT22;5835;42.930;25.178;2023-03-22T05:07:59;9.40;99.90
11559;DHT22;5835;42.930;25.178;2023-03-22T05:10:27;9.30;99.90
11559;DHT22;5835;42.930;25.178;2023-03-22T05:12:55;9.30;99.90
11559;DHT22;5835;42.930;25.178;2023-03-22T05:15:22;9.30;99.90
11559;DHT22;5835;42.930;25.178;2023-03-22T05:17:49;9.30;99.90
11559;DHT22;5835;42.930;25.178;2023-03-22T05:20:17;9.30;99.90
11559;DHT22;5835;42.930;25.178;2023-03-22T05:22:45;9.10;99.90
11559;DHT22;5835;42.930;25.178;2023-03-22T05:25:16;9.00;99.90
11559;DHT22;5835;42.930;25.178;2023-03-22T05:27:46;9.00;99.90
11559;DHT22;5835;42.930;25.178;2023-03-22T05:30:15;8.90;99.90
11559;DHT22;5835;42.930;25.178;2023-03-22T05:32:43;8.90;99.90
11559;DHT22;5835;42.930;25.178;2023-03-22T05:35:12;9.00;99.90
11559;DHT22;5835;42.930;25.178;2023-03-22T05:37:39;9.00;99.90
11559;DHT22;5835;42.930;25.178;2023-03-22T05:40:08;9.10;99.90
11559;DHT22;5835;42.930;25.178;2023-03-22T05:42:37;9.10;99.90
11559;DHT22;5835;42.930;25.178;2023-03-22T05:45:06;9.20;99.90
11559;DHT22;5835;42.930;25.178;2023-03-22T05:47:34;9.30;99.90
11559;DHT22;5835;42.930;25.178;2023-03-22T05:50:08;9.20;99.90
11559;DHT22;5835;42.930;25.178;2023-03-22T05:52:36;9.20;99.90
11559;DHT22;5835;42.930;25.178;2023-03-22T05:55:04;9.20;99.90
11559;DHT22;5835;42.930;25.178;2023-03-22T05:57:32;9.20;99.90
11559;DHT22;5835;42.930;25.178;2023-03-22T06:00:01;9.10;99.90
11559;DHT22;5835;42.930;25.178;2023-03-22T06:02:35;9.10;99.90
11559;DHT22;5835;42.930;25.178;2023-03-22T06:05:03;9.00;99.90
11559;DHT22;5835;42.930;25.178;2023-03-22T06:07:31;9.00;99.90
11559;DHT22;5835;42.930;25.178;2023-03-22T06:09:58;9.00;99.90
11559;DHT22;5835;42.930;25.178;2023-03-22T06:12:26;9.00;99.90
11559;DHT22;5835;42.930;25.178;2023-03-22T06:14:53;9.00;99.90
11559;DHT22;5835;42.930;25.178;2023-03-22T06:17:22;9.00;99.90
11559;DHT22;5835;42.930;25.178;2023-03-22T06:19:50;9.00;99.90
11559;DHT22;5835;42.930;25.178;2023-03-22T06:22:19;9.00;99.90
11559;DHT22;5835;42.930;25.178;2023-03-22T06:24:47;9.00;99.90
11559;DHT22;5835;42.930;25.178;2023-03-22T06:27:18;9.00;99.90
11559;DHT22;5835;42.930;25.178;2023-03-22T06:29:46;9.00;99.90
11559;DHT22;5835;42.930;25.178;2023-03-22T06:32:15;9.10;99.90
11559;DHT22;5835;42.930;25.178;2023-03-22T06:34:44;9.10;99.90
11559;DHT22;5835;42.930;25.178;2023-03-22T06:37:12;9.10;99.90
11559;DHT22;5835;42.930;25.178;2023-03-22T06:39:39;9.10;99.90
11559;DHT22;5835;42.930;25.178;2023-03-22T06:42:07;9.20;99.90
11559;DHT22;5835;42.930;25.178;2023-03-22T06:44:35;9.40;99.90
11559;DHT22;5835;42.930;25.178;2023-03-22T06:47:03;9.40;99.90
11559;DHT22;5835;42.930;25.178;2023-03-22T06:49:30;9.50;99.90
11559;DHT22;5835;42.930;25.178;2023-03-22T06:51:59;9.70;99.90
11559;DHT22;5835;42.930;25.178;2023-03-22T06:54:27;9.70;99.90
11559;DHT22;5835;42.930;25.178;2023-03-22T06:56:56;9.60;99.90
11559;DHT22;5835;42.930;25.178;2023-03-22T06:59:24;9.60;99.90
11559;DHT22;5835;42.930;25.178;2023-03-22T07:01:51;9.70;99.90
11559;DHT22;5835;42.930;25.178;2023-03-22T07:04:19;9.80;99.90
11559;DHT22;5835;42.930;25.178;2023-03-22T07:06:47;9.90;99.90
11559;DHT22;5835;42.930;25.178;2023-03-22T07:09:16;9.90;99.90
11559;DHT22;5835;42.930;25.178;2023-03-22T07:11:43;9.80;99.90
11559;DHT22;5835;42.930;25.178;2023-03-22T07:14:11;10.00;99.90
11559;DHT22;5835;42.930;25.178;2023-03-22T07:16:39;9.70;99.90
11559;DHT22;5835;42.930;25.178;2023-03-22T07:19:06;9.80;99.90
11559;DHT22;5835;42.930;25.178;2023-03-22T07:21:34;10.20;99.90
11559;DHT22;5835;42.930;25.178;2023-03-22T07:24:02;10.30;99.90
11559;DHT22;5835;42.930;25.178;2023-03-22T07:26:33;10.50;99.90
11559;DHT22;5835;42.930;25.178;2023-03-22T07:29:00;10.60;99.90
11559;DHT22;5835;42.930;25.178;2023-03-22T07:31:28;10.80;99.90
11559;DHT22;5835;42.930;25.178;2023-03-22T07:34:01;10.90;99.90
11559;DHT22;5835;42.930;25.178;2023-03-22T07:36:29;11.00;99.90
11559;DHT22;5835;42.930;25.178;2023-03-22T07:38:56;11.20;99.90
11559;DHT22;5835;42.930;25.178;2023-03-22T07:41:24;11.30;99.90
11559;DHT22;5835;42.930;25.178;2023-03-22T07:43:55;11.30;99.90
11559;DHT22;5835;42.930;25.178;2023-03-22T07:46:22;11.10;99.90
11559;DHT22;5835;42.930;25.178;2023-03-22T07:48:50;10.90;99.90
11559;DHT22;5835;42.930;25.178;2023-03-22T07:51:17;10.70;99.90
11559;DHT22;5835;42.930;25.178;2023-03-22T07:53:45;10.80;99.90
11559;DHT22;5835;42.930;25.178;2023-03-22T07:56:12;10.80;99.90
11559;DHT22;5835;42.930;25.178;2023-03-22T07:58:40;10.90;99.90
11559;DHT22;5835;42.930;25.178;2023-03-22T08:01:10;10.70;99.90
11559;DHT22;5835;42.930;25.178;2023-03-22T08:03:38;10.90;99.90
11559;DHT22;5835;42.930;25.178;2023-03-22T08:06:07;11.00;99.90
11559;DHT22;5835;42.930;25.178;2023-03-22T08:08:36;11.20;99.90
11559;DHT22;5835;42.930;25.178;2023-03-22T08:11:04;11.30;99.90
11559;DHT22;5835;42.930;25.178;2023-03-22T08:13:32;11.40;99.90
11559;DHT22;5835;42.930;25.178;2023-03-22T08:16:00;11.40;99.90
11559;DHT22;5835;42.930;25.178;2023-03-22T08:18:29;11.30;99.90
11559;DHT22;5835;42.930;25.178;2023-03-22T08:20:57;11.40;99.90
11559;DHT22;5835;42.930;25.178;2023-03-22T08:23:26;11.40;99.90
11559;DHT22;5835;42.930;25.178;2023-03-22T08:25:54;11.40;99.90
11559;DHT22;5835;42.930;25.178;2023-03-22T08:28:22;11.30;99.90
11559;DHT22;5835;42.930;25.178;2023-03-22T08:30:50;11.40;99.90
11559;DHT22;5835;42.930;25.178;2023-03-22T08:33:17;11.30;99.90
11559;DHT22;5835;42.930;25.178;2023-03-22T08:35:50;11.50;99.90
11559;DHT22;5835;42.930;25.178;2023-03-22T08:38:17;11.50;99.90
11559;DHT22;5835;42.930;25.178;2023-03-22T08:40:45;11.30;99.90
11559;DHT22;5835;42.930;25.178;2023-03-22T08:43:13;11.60;99.90
11559;DHT22;5835;42.930;25.178;2023-03-22T08:45:41;11.60;99.90
11559;DHT22;5835;42.930;25.178;2023-03-22T08:48:10;11.70;99.90
11559;DHT22;5835;42.930;25.178;2023-03-22T08:50:37;11.70;99.90
11559;DHT22;5835;42.930;25.178;2023-03-22T08:53:06;11.80;99.90
11559;DHT22;5835;42.930;25.178;2023-03-22T08:55:36;11.90;99.90
11559;DHT22;5835;42.930;25.178;2023-03-22T08:58:07;11.90;90.90
11559;DHT22;5835;42.930;25.178;2023-03-22T09:00:36;11.40;98.30
11559;DHT22;5835;42.930;25.178;2023-03-22T09:03:04;11.50;99.90
11559;DHT22;5835;42.930;25.178;2023-03-22T09:05:34;11.60;99.90
11559;DHT22;5835;42.930;25.178;2023-03-22T09:08:02;11.70;99.90
11559;DHT22;5835;42.930;25.178;2023-03-22T09:10:33;11.80;99.90
11559;DHT22;5835;42.930;25.178;2023-03-22T09:13:00;11.80;99.90
11559;DHT22;5835;42.930;25.178;2023-03-22T09:15:30;11.90;97.80
11559;DHT22;5835;42.930;25.178;2023-03-22T09:17:58;11.80;73.20
11559;DHT22;5835;42.930;25.178;2023-03-22T09:20:26;11.60;95.40
11559;DHT22;5835;42.930;25.178;2023-03-22T09:22:53;11.40;71.40
11559;DHT22;5835;42.930;25.178;2023-03-22T09:25:21;11.40;99.90
11559;DHT22;5835;42.930;25.178;2023-03-22T09:27:50;11.20;98.00
11559;DHT22;5835;42.930;25.178;2023-03-22T09:30:18;11.30;99.90
11559;DHT22;5835;42.930;25.178;2023-03-22T09:32:45;11.20;99.90
11559;DHT22;5835;42.930;25.178;2023-03-22T09:35:13;11.30;99.90
11559;DHT22;5835;42.930;25.178;2023-03-22T09:37:41;11.20;99.90
11559;DHT22;5835;42.930;25.178;2023-03-22T09:40:11;11.60;99.90
11559;DHT22;5835;42.930;25.178;2023-03-22T09:42:41;11.50;99.90
11559;DHT22;5835;42.930;25.178;2023-03-22T09:45:15;11.50;99.90
11559;DHT22;5835;42.930;25.178;2023-03-22T09:47:47;11.60;99.90
11559;DHT22;5835;42.930;25.178;2023-03-22T09:50:19;11.60;99.90
11559;DHT22;5835;42.930;25.178;2023-03-22T09:52:47;11.80;99.90
11559;DHT22;5835;42.930;25.178;2023-03-22T09:55:20;11.80;99.90
11559;DHT22;5835;42.930;25.178;2023-03-22T09:57:56;11.90;99.90
11559;DHT22;5835;42.930;25.178;2023-03-22T10:00:36;12.00;99.90
11559;DHT22;5835;42.930;25.178;2023-03-22T10:03:15;12.20;99.90
11559;DHT22;5835;42.930;25.178;2023-03-22T10:05:48;11.80;99.90
11559;DHT22;5835;42.930;25.178;2023-03-22T10:08:25;12.00;99.90
11559;DHT22;5835;42.930;25.178;2023-03-22T10:10:58;11.90;99.90
11559;DHT22;5835;42.930;25.178;2023-03-22T10:13:31;12.10;97.50
11559;DHT22;5835;42.930;25.178;2023-03-22T10:16:04;11.90;61.40
11559;DHT22;5835;42.930;25.178;2023-03-22T10:18:35;11.90;34.80
11559;DHT22;5835;42.930;25.178;2023-03-22T10:21:05;12.00;26.50
11559;DHT22;5835;42.930;25.178;2023-03-22T10:23:36;12.20;86.10
11559;DHT22;5835;42.930;25.178;2023-03-22T10:26:06;12.20;1.00
11559;DHT22;5835;42.930;25.178;2023-03-22T10:28:37;12.50;64.10
11559;DHT22;5835;42.930;25.178;2023-03-22T10:31:12;13.00;35.30
11559;DHT22;5835;42.930;25.178;2023-03-22T10:33:46;12.40;1.00
11559;DHT22;5835;42.930;25.178;2023-03-22T10:36:20;12.30;73.70
11559;DHT22;5835;42.930;25.178;2023-03-22T10:38:50;12.10;1.00
11559;DHT22;5835;42.930;25.178;2023-03-22T10:41:20;12.40;47.00
11559;DHT22;5835;42.930;25.178;2023-03-22T10:43:52;12.50;1.00
11559;DHT22;5835;42.930;25.178;2023-03-22T10:46:24;12.40;1.00
11559;DHT22;5835;42.930;25.178;2023-03-22T10:48:57;12.20;1.00
11559;DHT22;5835;42.930;25.178;2023-03-22T10:51:28;12.40;1.00
11559;DHT22;5835;42.930;25.178;2023-03-22T10:53:58;12.40;1.00
11559;DHT22;5835;42.930;25.178;2023-03-22T10:56:27;12.30;1.00
11559;DHT22;5835;42.930;25.178;2023-03-22T10:58:55;12.60;1.00
11559;DHT22;5835;42.930;25.178;2023-03-22T11:01:32;12.70;1.00
11559;DHT22;5835;42.930;25.178;2023-03-22T11:04:09;12.70;1.00
11559;DHT22;5835;42.930;25.178;2023-03-22T11:06:39;12.70;99.90
11559;DHT22;5835;42.930;25.178;2023-03-22T11:09:14;12.60;99.90
11559;DHT22;5835;42.930;25.178;2023-03-22T11:11:47;12.70;1.00
11559;DHT22;5835;42.930;25.178;2023-03-22T11:14:19;12.90;1.00
11559;DHT22;5835;42.930;25.178;2023-03-22T11:16:52;13.10;99.90
11559;DHT22;5835;42.930;25.178;2023-03-22T11:19:24;13.50;1.00
11559;DHT22;5835;42.930;25.178;2023-03-22T11:21:54;13.10;99.90
11559;DHT22;5835;42.930;25.178;2023-03-22T11:24:24;13.10;1.00
11559;DHT22;5835;42.930;25.178;2023-03-22T11:27:15;13.00;99.90
11559;DHT22;5835;42.930;25.178;2023-03-22T11:29:46;12.90;99.90
11559;DHT22;5835;42.930;25.178;2023-03-22T11:32:25;13.10;1.00
11559;DHT22;5835;42.930;25.178;2023-03-22T11:35:04;13.20;9.80
11559;DHT22;5835;42.930;25.178;2023-03-22T11:37:32;13.10;1.00
11559;DHT22;5835;42.930;25.178;2023-03-22T11:40:00;12.90;1.00
11559;DHT22;5835;42.930;25.178;2023-03-22T11:42:33;12.80;1.00
11559;DHT22;5835;42.930;25.178;2023-03-22T11:45:01;12.80;1.00
11559;DHT22;5835;42.930;25.178;2023-03-22T11:47:35;12.70;1.00
11559;DHT22;5835;42.930;25.178;2023-03-22T11:50:05;12.60;1.00
11559;DHT22;5835;42.930;25.178;2023-03-22T11:52:35;12.50;1.00
11559;DHT22;5835;42.930;25.178;2023-03-22T11:55:05;12.50;1.00
11559;DHT22;5835;42.930;25.178;2023-03-22T11:57:33;12.50;1.00
11559;DHT22;5835;42.930;25.178;2023-03-22T12:00:05;12.50;1.00
11559;DHT22;5835;42.930;25.178;2023-03-22T12:02:43;12.40;1.00
11559;DHT22;5835;42.930;25.178;2023-03-22T12:05:18;12.30;1.00
11559;DHT22;5835;42.930;25.178;2023-03-22T12:07:51;12.30;1.00
11559;DHT22;5835;42.930;25.178;2023-03-22T12:10:23;12.30;1.00
11559;DHT22;5835;42.930;25.178;2023-03-22T12:12:56;12.40;1.00
11559;DHT22;5835;42.930;25.178;2023-03-22T12:15:28;11.90;1.00
11559;DHT22;5835;42.930;25.178;2023-03-22T12:18:04;11.80;1.00
11559;DHT22;5835;42.930;25.178;2023-03-22T12:20:39;11.70;1.00
11559;DHT22;5835;42.930;25.178;2023-03-22T12:23:16;11.60;1.00
11559;DHT22;5835;42.930;25.178;2023-03-22T12:25:47;11.60;1.00
11559;DHT22;5835;42.930;25.178;2023-03-22T12:28:19;11.50;1.00
11559;DHT22;5835;42.930;25.178;2023-03-22T12:30:48;11.50;1.00
11559;DHT22;5835;42.930;25.178;2023-03-22T12:33:24;11.60;1.00
11559;DHT22;5835;42.930;25.178;2023-03-22T12:35:55;11.60;1.00
11559;DHT22;5835;42.930;25.178;2023-03-22T12:38:28;11.70;1.00
11559;DHT22;5835;42.930;25.178;2023-03-22T12:41:01;11.60;1.00
11559;DHT22;5835;42.930;25.178;2023-03-22T12:43:42;11.60;1.00
11559;DHT22;5835;42.930;25.178;2023-03-22T12:46:17;11.60;1.00
11559;DHT22;5835;42.930;25.178;2023-03-22T12:48:50;11.70;3.30
11559;DHT22;5835;42.930;25.178;2023-03-22T12:51:19;11.70;1.00
11559;DHT22;5835;42.930;25.178;2023-03-22T12:53:49;11.70;1.00
11559;DHT22;5835;42.930;25.178;2023-03-22T12:56:18;11.60;1.00
11559;DHT22;5835;42.930;25.178;2023-03-22T12:58:54;11.50;1.00
11559;DHT22;5835;42.930;25.178;2023-03-22T13:01:29;11.60;1.00
11559;DHT22;5835;42.930;25.178;2023-03-22T13:04:26;11.60;1.00
11559;DHT22;5835;42.930;25.178;2023-03-22T13:06:57;11.60;1.00
11559;DHT22;5835;42.930;25.178;2023-03-22T13:09:40;11.50;1.00
11559;DHT22;5835;42.930;25.178;2023-03-22T13:12:33;11.50;1.00
11559;DHT22;5835;42.930;25.178;2023-03-22T13:15:19;11.70;1.00
11559;DHT22;5835;42.930;25.178;2023-03-22T13:17:51;11.70;1.00
11559;DHT22;5835;42.930;25.178;2023-03-22T13:20:31;11.60;1.00
11559;DHT22;5835;42.930;25.178;2023-03-22T13:23:02;11.70;1.00
11559;DHT22;5835;42.930;25.178;2023-03-22T13:25:35;11.60;1.00
11559;DHT22;5835;42.930;25.178;2023-03-22T13:28:22;11.50;1.00
11559;DHT22;5835;42.930;25.178;2023-03-22T13:30:52;11.60;1.00
11559;DHT22;5835;42.930;25.178;2023-03-22T13:33:25;11.60;1.00
11559;DHT22;5835;42.930;25.178;2023-03-22T13:35:55;11.50;5.20
11559;DHT22;5835;42.930;25.178;2023-03-22T13:38:25;11.40;1.00
11559;DHT22;5835;42.930;25.178;2023-03-22T13:40:59;11.40;16.20
11559;DHT22;5835;42.930;25.178;2023-03-22T13:43:30;11.30;13.20
11559;DHT22;5835;42.930;25.178;2023-03-22T13:46:09;11.30;48.20
11559;DHT22;5835;42.930;25.178;2023-03-22T13:48:47;11.20;83.00
11559;DHT22;5835;42.930;25.178;2023-03-22T13:51:25;11.20;85.00
11559;DHT22;5835;42.930;25.178;2023-03-22T13:53:58;11.10;99.90
11559;DHT22;5835;42.930;25.178;2023-03-22T13:56:33;11.00;99.90
11559;DHT22;5835;42.930;25.178;2023-03-22T13:59:02;10.90;99.90
11559;DHT22;5835;42.930;25.178;2023-03-22T14:01:31;10.90;99.90
11559;DHT22;5835;42.930;25.178;2023-03-22T14:04:05;10.90;99.90
11559;DHT22;5835;42.930;25.178;2023-03-22T14:06:42;10.90;99.90
11559;DHT22;5835;42.930;25.178;2023-03-22T14:09:20;11.00;99.90
11559;DHT22;5835;42.930;25.178;2023-03-22T14:11:55;10.80;99.90
11559;DHT22;5835;42.930;25.178;2023-03-22T14:14:30;10.60;99.90
11559;DHT22;5835;42.930;25.178;2023-03-22T14:17:01;10.50;99.90
11559;DHT22;5835;42.930;25.178;2023-03-22T14:19:32;10.40;99.90
11559;DHT22;5835;42.930;25.178;2023-03-22T14:22:09;10.30;99.90
11559;DHT22;5835;42.930;25.178;2023-03-22T14:24:39;10.20;99.90
11559;DHT22;5835;42.930;25.178;2023-03-22T14:27:07;10.30;99.90
11559;DHT22;5835;42.930;25.178;2023-03-22T14:29:42;10.20;99.90
11559;DHT22;5835;42.930;25.178;2023-03-22T14:32:15;10.30;99.90
11559;DHT22;5835;42.930;25.178;2023-03-22T14:34:46;10.40;99.90
11559;DHT22;5835;42.930;25.178;2023-03-22T14:37:18;10.50;99.90
11559;DHT22;5835;42.930;25.178;2023-03-22T14:39:48;10.50;99.90
11559;DHT22;5835;42.930;25.178;2023-03-22T14:42:26;10.50;99.90
11559;DHT22;5835;42.930;25.178;2023-03-22T14:44:56;10.60;99.90
11559;DHT22;5835;42.930;25.178;2023-03-22T14:47:26;10.50;99.90
11559;DHT22;5835;42.930;25.178;2023-03-22T14:50:02;10.40;99.90
11559;DHT22;5835;42.930;25.178;2023-03-22T14:52:33;10.40;99.90
11559;DHT22;5835;42.930;25.178;2023-03-22T14:55:03;10.50;99.90
11559;DHT22;5835;42.930;25.178;2023-03-22T14:57:35;10.50;99.90
11559;DHT22;5835;42.930;25.178;2023-03-22T15:00:06;10.40;99.90
11559;DHT22;5835;42.930;25.178;2023-03-22T15:02:42;10.50;99.90
11559;DHT22;5835;42.930;25.178;2023-03-22T15:05:14;10.40;99.90
11559;DHT22;5835;42.930;25.178;2023-03-22T15:07:48;10.60;99.90
11559;DHT22;5835;42.930;25.178;2023-03-22T15:10:19;10.50;99.90
11559;DHT22;5835;42.930;25.178;2023-03-22T15:12:51;10.60;99.90
11559;DHT22;5835;42.930;25.178;2023-03-22T15:15:22;10.80;99.90
11559;DHT22;5835;42.930;25.178;2023-03-22T15:17:51;10.70;99.90
11559;DHT22;5835;42.930;25.178;2023-03-22T15:20:25;10.80;99.90
11559;DHT22;5835;42.930;25.178;2023-03-22T15:22:57;10.80;99.90
11559;DHT22;5835;42.930;25.178;2023-03-22T15:25:30;10.90;99.90
11559;DHT22;5835;42.930;25.178;2023-03-22T15:27:59;10.80;99.90
11559;DHT22;5835;42.930;25.178;2023-03-22T15:30:29;10.70;99.90
11559;DHT22;5835;42.930;25.178;2023-03-22T15:33:03;10.70;99.90
11559;DHT22;5835;42.930;25.178;2023-03-22T15:35:31;10.70;99.90
11559;DHT22;5835;42.930;25.178;2023-03-22T15:38:01;10.80;99.90
11559;DHT22;5835;42.930;25.178;2023-03-22T15:40:37;10.70;99.90
11559;DHT22;5835;42.930;25.178;2023-03-22T15:43:09;10.80;99.90
11559;DHT22;5835;42.930;25.178;2023-03-22T15:45:43;10.80;99.90
11559;DHT22;5835;42.930;25.178;2023-03-22T15:48:16;10.70;99.90
11559;DHT22;5835;42.930;25.178;2023-03-22T15:50:51;10.90;99.90
11559;DHT22;5835;42.930;25.178;2023-03-22T15:53:29;11.00;99.90
11559;DHT22;5835;42.930;25.178;2023-03-22T15:55:57;11.00;99.90
11559;DHT22;5835;42.930;25.178;2023-03-22T15:58:26;11.10;99.90
11559;DHT22;5835;42.930;25.178;2023-03-22T16:01:07;11.30;99.90
11559;DHT22;5835;42.930;25.178;2023-03-22T16:03:40;11.20;99.90
11559;DHT22;5835;42.930;25.178;2023-03-22T16:06:12;11.10;99.90
11559;DHT22;5835;42.930;25.178;2023-03-22T16:08:42;11.10;99.90
11559;DHT22;5835;42.930;25.178;2023-03-22T16:11:11;11.10;99.90